Ovett, Mississippi
Current Conditions -  °F | °C
As of 6:15 AM on Saturday 20 Dec 2014 (Local Time) from KPIB Reporting Station
Overcast Overcast  
Wind Chill: 39°   Ceiling: 600
Heat Index: 45°   Visibility: 10mi
Dew Point: 41°   Wind: 10mph
Humidity: 87%   Direction: 30°NNE
Pressure: 30.17"   Gusts: NA
Location:  31.48°N, 89.04°W
Report Text: KPIB 201215Z AUTO 03009KT 10SM OVC006 07/05 A3017 RMK AO1
Loading
Personal Weather Stations






























Interactive Weather Map New forecast layout! Learn more

10-Day Weather Forecast

Advertisements
Track Severe Weather on mobile